sensor_id;sensor_type;location;lat;lon;timestamp;temperature;humidity
5286;DHT22;2665;53.112;7.358;2023-02-19T00:01:16;8.60;99.90
5286;DHT22;2665;53.112;7.358;2023-02-19T00:03:46;8.70;99.90
5286;DHT22;2665;53.112;7.358;2023-02-19T00:06:12;8.70;99.90
5286;DHT22;2665;53.112;7.358;2023-02-19T00:08:38;8.70;99.90
5286;DHT22;2665;53.112;7.358;2023-02-19T00:11:07;8.70;99.90
5286;DHT22;2665;53.112;7.358;2023-02-19T00:13:37;8.70;99.90
5286;DHT22;2665;53.112;7.358;2023-02-19T00:16:08;8.70;99.90
5286;DHT22;2665;53.112;7.358;2023-02-19T00:18:35;8.70;99.90
5286;DHT22;2665;53.112;7.358;2023-02-19T00:21:01;8.70;99.90
5286;DHT22;2665;53.112;7.358;2023-02-19T00:23:26;8.70;99.90
5286;DHT22;2665;53.112;7.358;2023-02-19T00:25:53;8.80;99.90
5286;DHT22;2665;53.112;7.358;2023-02-19T00:28:18;8.80;99.90
5286;DHT22;2665;53.112;7.358;2023-02-19T00:30:44;8.80;99.90
5286;DHT22;2665;53.112;7.358;2023-02-19T00:33:10;8.70;1.00
5286;DHT22;2665;53.112;7.358;2023-02-19T00:35:35;8.70;1.00
5286;DHT22;2665;53.112;7.358;2023-02-19T00:38:02;8.70;1.00
5286;DHT22;2665;53.112;7.358;2023-02-19T00:40:27;8.70;1.00
5286;DHT22;2665;53.112;7.358;2023-02-19T00:42:53;8.60;1.00
5286;DHT22;2665;53.112;7.358;2023-02-19T00:45:19;8.70;1.00
5286;DHT22;2665;53.112;7.358;2023-02-19T00:47:44;8.70;1.00
5286;DHT22;2665;53.112;7.358;2023-02-19T00:50:10;8.70;1.00
5286;DHT22;2665;53.112;7.358;2023-02-19T00:52:36;8.70;1.00
5286;DHT22;2665;53.112;7.358;2023-02-19T00:55:02;8.70;1.00
5286;DHT22;2665;53.112;7.358;2023-02-19T00:57:27;8.70;1.00
5286;DHT22;2665;53.112;7.358;2023-02-19T00:59:53;8.70;1.00
5286;DHT22;2665;53.112;7.358;2023-02-19T01:02:18;8.60;99.90
5286;DHT22;2665;53.112;7.358;2023-02-19T01:04:44;8.30;42.00
5286;DHT22;2665;53.112;7.358;2023-02-19T01:07:09;8.00;1.00
5286;DHT22;2665;53.112;7.358;2023-02-19T01:09:35;7.70;25.10
5286;DHT22;2665;53.112;7.358;2023-02-19T01:12:03;7.60;99.90
5286;DHT22;2665;53.112;7.358;2023-02-19T01:14:28;7.40;99.90
5286;DHT22;2665;53.112;7.358;2023-02-19T01:16:54;7.30;99.90
5286;DHT22;2665;53.112;7.358;2023-02-19T01:19:20;7.20;99.90
5286;DHT22;2665;53.112;7.358;2023-02-19T01:21:45;7.10;99.90
5286;DHT22;2665;53.112;7.358;2023-02-19T01:24:11;7.00;99.90
5286;DHT22;2665;53.112;7.358;2023-02-19T01:26:36;7.00;99.90
5286;DHT22;2665;53.112;7.358;2023-02-19T01:29:02;6.90;1.00
5286;DHT22;2665;53.112;7.358;2023-02-19T01:31:29;6.90;99.90
5286;DHT22;2665;53.112;7.358;2023-02-19T01:33:57;6.80;99.90
5286;DHT22;2665;53.112;7.358;2023-02-19T01:36:23;6.80;1.00
5286;DHT22;2665;53.112;7.358;2023-02-19T01:38:49;6.70;1.00
5286;DHT22;2665;53.112;7.358;2023-02-19T01:41:20;6.70;1.00
5286;DHT22;2665;53.112;7.358;2023-02-19T01:46:44;6.70;1.00
5286;DHT22;2665;53.112;7.358;2023-02-19T01:51:50;6.70;1.00
5286;DHT22;2665;53.112;7.358;2023-02-19T01:54:19;6.70;1.00
5286;DHT22;2665;53.112;7.358;2023-02-19T01:56:47;6.60;1.00
5286;DHT22;2665;53.112;7.358;2023-02-19T01:59:13;6.70;1.00
5286;DHT22;2665;53.112;7.358;2023-02-19T02:01:40;6.60;1.00
5286;DHT22;2665;53.112;7.358;2023-02-19T02:04:07;6.60;1.00
5286;DHT22;2665;53.112;7.358;2023-02-19T02:06:41;6.60;1.00
5286;DHT22;2665;53.112;7.358;2023-02-19T02:09:07;6.60;1.00
5286;DHT22;2665;53.112;7.358;2023-02-19T02:11:52;6.50;1.00
5286;DHT22;2665;53.112;7.358;2023-02-19T02:14:22;6.50;1.00
5286;DHT22;2665;53.112;7.358;2023-02-19T02:22:42;6.20;1.00
5286;DHT22;2665;53.112;7.358;2023-02-19T02:33:40;5.80;1.00
5286;DHT22;2665;53.112;7.358;2023-02-19T02:36:09;5.80;1.00
5286;DHT22;2665;53.112;7.358;2023-02-19T02:38:41;5.70;1.00
5286;DHT22;2665;53.112;7.358;2023-02-19T02:41:07;5.70;1.00
5286;DHT22;2665;53.112;7.358;2023-02-19T02:43:33;5.70;1.00
5286;DHT22;2665;53.112;7.358;2023-02-19T02:45:58;5.70;1.00
5286;DHT22;2665;53.112;7.358;2023-02-19T02:48:34;5.70;1.00
5286;DHT22;2665;53.112;7.358;2023-02-19T02:53:36;5.60;1.00
5286;DHT22;2665;53.112;7.358;2023-02-19T02:56:23;5.60;1.00
5286;DHT22;2665;53.112;7.358;2023-02-19T02:58:50;5.60;1.00
5286;DHT22;2665;53.112;7.358;2023-02-19T03:01:31;5.60;1.00
5286;DHT22;2665;53.112;7.358;2023-02-19T03:07:34;5.60;1.00
5286;DHT22;2665;53.112;7.358;2023-02-19T03:10:02;5.60;1.00
5286;DHT22;2665;53.112;7.358;2023-02-19T03:12:30;5.60;1.00
5286;DHT22;2665;53.112;7.358;2023-02-19T03:15:16;5.60;1.00
5286;DHT22;2665;53.112;7.358;2023-02-19T03:18:04;5.60;1.00
5286;DHT22;2665;53.112;7.358;2023-02-19T03:20:52;5.60;1.00
5286;DHT22;2665;53.112;7.358;2023-02-19T03:23:19;5.60;1.00
5286;DHT22;2665;53.112;7.358;2023-02-19T03:25:46;5.60;1.00
5286;DHT22;2665;53.112;7.358;2023-02-19T03:28:32;5.60;1.00
5286;DHT22;2665;53.112;7.358;2023-02-19T03:31:20;5.60;1.00
5286;DHT22;2665;53.112;7.358;2023-02-19T03:33:51;5.50;1.00
5286;DHT22;2665;53.112;7.358;2023-02-19T03:36:19;5.50;1.00
5286;DHT22;2665;53.112;7.358;2023-02-19T03:39:04;5.50;1.00
5286;DHT22;2665;53.112;7.358;2023-02-19T03:41:42;5.50;1.00
5286;DHT22;2665;53.112;7.358;2023-02-19T03:47:18;5.50;1.00
5286;DHT22;2665;53.112;7.358;2023-02-19T03:49:55;5.40;1.00
5286;DHT22;2665;53.112;7.358;2023-02-19T03:52:46;5.40;1.00
5286;DHT22;2665;53.112;7.358;2023-02-19T03:55:38;5.30;1.00
5286;DHT22;2665;53.112;7.358;2023-02-19T04:03:17;5.10;1.00
5286;DHT22;2665;53.112;7.358;2023-02-19T04:05:48;5.10;1.00
5286;DHT22;2665;53.112;7.358;2023-02-19T04:08:18;5.00;1.00
5286;DHT22;2665;53.112;7.358;2023-02-19T04:10:46;5.00;1.00
5286;DHT22;2665;53.112;7.358;2023-02-19T04:13:29;5.00;1.00
5286;DHT22;2665;53.112;7.358;2023-02-19T04:16:02;5.00;1.00
5286;DHT22;2665;53.112;7.358;2023-02-19T04:18:31;5.00;1.00
5286;DHT22;2665;53.112;7.358;2023-02-19T04:20:59;5.00;1.00
5286;DHT22;2665;53.112;7.358;2023-02-19T04:23:29;5.00;1.00
5286;DHT22;2665;53.112;7.358;2023-02-19T04:25:58;5.00;1.00
5286;DHT22;2665;53.112;7.358;2023-02-19T04:28:26;5.00;1.00
5286;DHT22;2665;53.112;7.358;2023-02-19T04:30:52;5.00;1.00
5286;DHT22;2665;53.112;7.358;2023-02-19T04:33:18;5.00;1.00
5286;DHT22;2665;53.112;7.358;2023-02-19T04:35:43;5.00;1.00
5286;DHT22;2665;53.112;7.358;2023-02-19T04:38:09;5.10;1.00
5286;DHT22;2665;53.112;7.358;2023-02-19T04:40:35;5.10;1.00
5286;DHT22;2665;53.112;7.358;2023-02-19T04:43:00;5.10;1.00
5286;DHT22;2665;53.112;7.358;2023-02-19T04:45:26;5.10;1.00
5286;DHT22;2665;53.112;7.358;2023-02-19T04:47:51;5.10;1.00
5286;DHT22;2665;53.112;7.358;2023-02-19T04:50:17;5.10;1.00
5286;DHT22;2665;53.112;7.358;2023-02-19T04:52:43;5.10;1.00
5286;DHT22;2665;53.112;7.358;2023-02-19T04:55:08;5.10;1.00
5286;DHT22;2665;53.112;7.358;2023-02-19T04:57:34;5.10;1.00
5286;DHT22;2665;53.112;7.358;2023-02-19T05:00:00;5.10;1.00
5286;DHT22;2665;53.112;7.358;2023-02-19T05:02:26;5.10;1.00
5286;DHT22;2665;53.112;7.358;2023-02-19T05:04:51;5.10;1.00
5286;DHT22;2665;53.112;7.358;2023-02-19T05:07:17;5.10;1.00
5286;DHT22;2665;53.112;7.358;2023-02-19T05:09:43;5.00;1.00
5286;DHT22;2665;53.112;7.358;2023-02-19T05:12:08;5.00;1.00
5286;DHT22;2665;53.112;7.358;2023-02-19T05:14:34;5.00;1.00
5286;DHT22;2665;53.112;7.358;2023-02-19T05:16:59;4.90;1.00
5286;DHT22;2665;53.112;7.358;2023-02-19T05:19:25;4.90;1.00
5286;DHT22;2665;53.112;7.358;2023-02-19T05:21:50;4.90;1.00
5286;DHT22;2665;53.112;7.358;2023-02-19T05:24:16;4.90;1.00
5286;DHT22;2665;53.112;7.358;2023-02-19T05:26:42;4.90;1.00
5286;DHT22;2665;53.112;7.358;2023-02-19T05:29:07;4.90;1.00
5286;DHT22;2665;53.112;7.358;2023-02-19T05:31:33;4.90;1.00
5286;DHT22;2665;53.112;7.358;2023-02-19T05:33:59;5.00;1.00
5286;DHT22;2665;53.112;7.358;2023-02-19T05:36:24;4.90;1.00
5286;DHT22;2665;53.112;7.358;2023-02-19T05:38:54;5.00;1.00
5286;DHT22;2665;53.112;7.358;2023-02-19T05:41:23;5.00;1.00
5286;DHT22;2665;53.112;7.358;2023-02-19T05:43:49;5.00;1.00
5286;DHT22;2665;53.112;7.358;2023-02-19T05:46:17;5.00;1.00
5286;DHT22;2665;53.112;7.358;2023-02-19T05:48:44;5.00;1.00
5286;DHT22;2665;53.112;7.358;2023-02-19T05:51:15;5.00;1.00
5286;DHT22;2665;53.112;7.358;2023-02-19T05:53:42;5.00;1.00
5286;DHT22;2665;53.112;7.358;2023-02-19T05:58:55;5.00;1.00
5286;DHT22;2665;53.112;7.358;2023-02-19T06:01:23;5.00;1.00
5286;DHT22;2665;53.112;7.358;2023-02-19T06:03:49;5.00;1.00
5286;DHT22;2665;53.112;7.358;2023-02-19T06:06:16;5.10;1.00
5286;DHT22;2665;53.112;7.358;2023-02-19T06:08:42;5.10;1.00
5286;DHT22;2665;53.112;7.358;2023-02-19T06:11:08;5.10;1.00
5286;DHT22;2665;53.112;7.358;2023-02-19T06:13:34;5.10;1.00
5286;DHT22;2665;53.112;7.358;2023-02-19T06:16:03;5.10;1.00
5286;DHT22;2665;53.112;7.358;2023-02-19T06:18:29;5.00;1.00
5286;DHT22;2665;53.112;7.358;2023-02-19T06:21:09;5.00;1.00
5286;DHT22;2665;53.112;7.358;2023-02-19T06:23:35;5.00;1.00
5286;DHT22;2665;53.112;7.358;2023-02-19T06:26:12;5.00;1.00
5286;DHT22;2665;53.112;7.358;2023-02-19T06:28:39;5.00;1.00
5286;DHT22;2665;53.112;7.358;2023-02-19T06:31:06;5.00;1.00
5286;DHT22;2665;53.112;7.358;2023-02-19T06:33:33;5.00;1.00
5286;DHT22;2665;53.112;7.358;2023-02-19T06:36:01;5.00;1.00
5286;DHT22;2665;53.112;7.358;2023-02-19T06:38:27;5.00;1.00
5286;DHT22;2665;53.112;7.358;2023-02-19T06:40:53;5.00;1.00
5286;DHT22;2665;53.112;7.358;2023-02-19T06:43:19;5.00;1.00
5286;DHT22;2665;53.112;7.358;2023-02-19T06:45:45;5.00;1.00
5286;DHT22;2665;53.112;7.358;2023-02-19T06:48:11;5.00;1.00
5286;DHT22;2665;53.112;7.358;2023-02-19T06:50:36;5.00;1.00
5286;DHT22;2665;53.112;7.358;2023-02-19T06:53:02;5.00;1.00
5286;DHT22;2665;53.112;7.358;2023-02-19T06:55:28;5.00;1.00
5286;DHT22;2665;53.112;7.358;2023-02-19T06:57:53;5.00;1.00
5286;DHT22;2665;53.112;7.358;2023-02-19T07:00:19;5.00;1.00
5286;DHT22;2665;53.112;7.358;2023-02-19T07:02:44;5.10;1.00
5286;DHT22;2665;53.112;7.358;2023-02-19T07:05:10;5.10;1.00
5286;DHT22;2665;53.112;7.358;2023-02-19T07:07:36;5.10;1.00
5286;DHT22;2665;53.112;7.358;2023-02-19T07:10:02;5.10;1.00
5286;DHT22;2665;53.112;7.358;2023-02-19T07:12:28;5.10;1.00
5286;DHT22;2665;53.112;7.358;2023-02-19T07:14:53;5.00;1.00
5286;DHT22;2665;53.112;7.358;2023-02-19T07:17:19;5.00;1.00
5286;DHT22;2665;53.112;7.358;2023-02-19T07:19:45;5.00;1.00
5286;DHT22;2665;53.112;7.358;2023-02-19T07:22:10;5.00;1.00
5286;DHT22;2665;53.112;7.358;2023-02-19T07:24:36;5.00;1.00
5286;DHT22;2665;53.112;7.358;2023-02-19T07:27:01;5.00;1.00
5286;DHT22;2665;53.112;7.358;2023-02-19T07:29:27;5.00;1.00
5286;DHT22;2665;53.112;7.358;2023-02-19T07:31:52;5.00;1.00
5286;DHT22;2665;53.112;7.358;2023-02-19T07:34:18;5.10;1.00
5286;DHT22;2665;53.112;7.358;2023-02-19T07:36:44;5.10;1.00
5286;DHT22;2665;53.112;7.358;2023-02-19T07:39:12;5.10;1.00
5286;DHT22;2665;53.112;7.358;2023-02-19T07:41:37;5.10;1.00
5286;DHT22;2665;53.112;7.358;2023-02-19T07:44:03;5.20;1.00
5286;DHT22;2665;53.112;7.358;2023-02-19T07:46:29;5.20;1.00
5286;DHT22;2665;53.112;7.358;2023-02-19T07:48:55;5.20;1.00
5286;DHT22;2665;53.112;7.358;2023-02-19T07:51:21;5.20;1.00
5286;DHT22;2665;53.112;7.358;2023-02-19T07:53:48;5.20;1.00
5286;DHT22;2665;53.112;7.358;2023-02-19T07:56:17;5.20;1.00
5286;DHT22;2665;53.112;7.358;2023-02-19T07:58:43;5.20;1.00
5286;DHT22;2665;53.112;7.358;2023-02-19T08:01:16;5.20;1.00
5286;DHT22;2665;53.112;7.358;2023-02-19T08:03:43;5.20;1.00
5286;DHT22;2665;53.112;7.358;2023-02-19T08:06:09;5.10;99.90
5286;DHT22;2665;53.112;7.358;2023-02-19T08:08:36;5.10;99.90
5286;DHT22;2665;53.112;7.358;2023-02-19T08:11:03;5.10;99.90
5286;DHT22;2665;53.112;7.358;2023-02-19T08:14:02;5.10;1.00
5286;DHT22;2665;53.112;7.358;2023-02-19T08:16:27;5.10;1.00
5286;DHT22;2665;53.112;7.358;2023-02-19T08:18:53;5.10;1.00
5286;DHT22;2665;53.112;7.358;2023-02-19T08:21:18;5.10;1.00
5286;DHT22;2665;53.112;7.358;2023-02-19T08:23:44;5.10;1.00
5286;DHT22;2665;53.112;7.358;2023-02-19T08:26:11;5.20;1.00
5286;DHT22;2665;53.112;7.358;2023-02-19T08:28:36;5.20;1.00
5286;DHT22;2665;53.112;7.358;2023-02-19T08:31:04;5.20;1.00
5286;DHT22;2665;53.112;7.358;2023-02-19T08:33:30;5.30;1.00
5286;DHT22;2665;53.112;7.358;2023-02-19T08:35:58;5.30;1.00
5286;DHT22;2665;53.112;7.358;2023-02-19T08:38:25;5.40;1.00
5286;DHT22;2665;53.112;7.358;2023-02-19T08:40:51;5.50;1.00
5286;DHT22;2665;53.112;7.358;2023-02-19T08:43:16;5.50;1.00
5286;DHT22;2665;53.112;7.358;2023-02-19T08:45:44;5.60;1.00
5286;DHT22;2665;53.112;7.358;2023-02-19T08:48:10;5.70;1.00
5286;DHT22;2665;53.112;7.358;2023-02-19T08:50:36;5.80;1.00
5286;DHT22;2665;53.112;7.358;2023-02-19T08:53:04;5.80;1.00
5286;DHT22;2665;53.112;7.358;2023-02-19T08:55:32;5.90;1.00
5286;DHT22;2665;53.112;7.358;2023-02-19T08:57:58;6.00;1.00
5286;DHT22;2665;53.112;7.358;2023-02-19T09:00:24;6.10;1.00
5286;DHT22;2665;53.112;7.358;2023-02-19T09:02:49;6.30;99.90
5286;DHT22;2665;53.112;7.358;2023-02-19T09:05:16;6.30;99.90
5286;DHT22;2665;53.112;7.358;2023-02-19T09:07:42;6.50;99.90
5286;DHT22;2665;53.112;7.358;2023-02-19T09:10:09;6.90;1.00
5286;DHT22;2665;53.112;7.358;2023-02-19T09:12:36;8.00;1.00
5286;DHT22;2665;53.112;7.358;2023-02-19T09:15:03;9.10;1.00
5286;DHT22;2665;53.112;7.358;2023-02-19T09:17:29;9.70;1.00
5286;DHT22;2665;53.112;7.358;2023-02-19T09:19:55;9.90;1.00
5286;DHT22;2665;53.112;7.358;2023-02-19T09:22:20;10.30;1.00
5286;DHT22;2665;53.112;7.358;2023-02-19T09:24:46;10.10;1.00
5286;DHT22;2665;53.112;7.358;2023-02-19T09:27:16;9.10;1.00
5286;DHT22;2665;53.112;7.358;2023-02-19T09:29:42;8.90;1.00
5286;DHT22;2665;53.112;7.358;2023-02-19T09:32:08;8.40;1.00
5286;DHT22;2665;53.112;7.358;2023-02-19T09:34:34;8.00;99.90
5286;DHT22;2665;53.112;7.358;2023-02-19T09:36:59;7.80;1.00
5286;DHT22;2665;53.112;7.358;2023-02-19T09:39:25;7.70;13.60
5286;DHT22;2665;53.112;7.358;2023-02-19T09:41:57;7.60;99.90
5286;DHT22;2665;53.112;7.358;2023-02-19T09:44:31;7.60;99.90
5286;DHT22;2665;53.112;7.358;2023-02-19T09:46:59;8.20;99.90
5286;DHT22;2665;53.112;7.358;2023-02-19T09:49:28;8.50;99.90
5286;DHT22;2665;53.112;7.358;2023-02-19T09:52:06;8.40;1.00
5286;DHT22;2665;53.112;7.358;2023-02-19T09:54:36;8.40;1.00
5286;DHT22;2665;53.112;7.358;2023-02-19T09:57:03;8.30;73.80
5286;DHT22;2665;53.112;7.358;2023-02-19T09:59:51;8.30;1.00
5286;DHT22;2665;53.112;7.358;2023-02-19T10:02:21;8.10;99.90
5286;DHT22;2665;53.112;7.358;2023-02-19T10:04:48;7.90;99.90
5286;DHT22;2665;53.112;7.358;2023-02-19T10:07:18;8.00;1.00
5286;DHT22;2665;53.112;7.358;2023-02-19T10:09:48;8.20;1.00
5286;DHT22;2665;53.112;7.358;2023-02-19T10:12:21;8.60;1.00
5286;DHT22;2665;53.112;7.358;2023-02-19T10:14:50;8.80;1.00
5286;DHT22;2665;53.112;7.358;2023-02-19T10:17:26;8.90;1.00
5286;DHT22;2665;53.112;7.358;2023-02-19T10:19:54;9.10;1.00
5286;DHT22;2665;53.112;7.358;2023-02-19T10:22:20;9.20;1.00
5286;DHT22;2665;53.112;7.358;2023-02-19T10:24:50;9.40;99.90
5286;DHT22;2665;53.112;7.358;2023-02-19T10:27:17;9.50;99.90
5286;DHT22;2665;53.112;7.358;2023-02-19T10:29:45;9.50;1.00
5286;DHT22;2665;53.112;7.358;2023-02-19T10:32:31;9.50;1.00
5286;DHT22;2665;53.112;7.358;2023-02-19T10:37:33;9.40;99.90
5286;DHT22;2665;53.112;7.358;2023-02-19T10:39:59;9.40;99.90
5286;DHT22;2665;53.112;7.358;2023-02-19T10:42:25;9.30;1.00
5286;DHT22;2665;53.112;7.358;2023-02-19T10:44:56;9.20;99.90
5286;DHT22;2665;53.112;7.358;2023-02-19T10:47:29;9.00;1.00
5286;DHT22;2665;53.112;7.358;2023-02-19T10:49:57;8.90;99.90
5286;DHT22;2665;53.112;7.358;2023-02-19T10:52:27;8.80;99.90
5286;DHT22;2665;53.112;7.358;2023-02-19T10:55:20;8.70;1.00
5286;DHT22;2665;53.112;7.358;2023-02-19T10:57:48;8.60;1.00
5286;DHT22;2665;53.112;7.358;2023-02-19T11:02:41;9.00;1.00
5286;DHT22;2665;53.112;7.358;2023-02-19T11:07:35;9.60;1.00
5286;DHT22;2665;53.112;7.358;2023-02-19T11:10:02;9.80;1.00
5286;DHT22;2665;53.112;7.358;2023-02-19T11:12:30;10.10;1.00
5286;DHT22;2665;53.112;7.358;2023-02-19T11:15:12;10.10;99.90
5286;DHT22;2665;53.112;7.358;2023-02-19T11:17:44;10.10;99.90
5286;DHT22;2665;53.112;7.358;2023-02-19T11:20:14;10.00;99.90
5286;DHT22;2665;53.112;7.358;2023-02-19T11:22:43;10.20;1.00
5286;DHT22;2665;53.112;7.358;2023-02-19T11:25:19;11.30;1.00
5286;DHT22;2665;53.112;7.358;2023-02-19T11:28:02;12.80;1.00
5286;DHT22;2665;53.112;7.358;2023-02-19T11:30:44;14.00;99.90
5286;DHT22;2665;53.112;7.358;2023-02-19T11:35:46;16.00;99.90
5286;DHT22;2665;53.112;7.358;2023-02-19T11:38:14;16.80;99.90
5286;DHT22;2665;53.112;7.358;2023-02-19T11:43:55;17.80;53.60
5286;DHT22;2665;53.112;7.358;2023-02-19T11:46:56;17.90;60.70
5286;DHT22;2665;53.112;7.358;2023-02-19T11:52:23;16.70;18.80
5286;DHT22;2665;53.112;7.358;2023-02-19T12:01:02;12.00;1.70
5286;DHT22;2665;53.112;7.358;2023-02-19T12:03:40;11.20;1.60
5286;DHT22;2665;53.112;7.358;2023-02-19T12:19:42;16.10;28.20
5286;DHT22;2665;53.112;7.358;2023-02-19T12:36:12;15.90;7.30
5286;DHT22;2665;53.112;7.358;2023-02-19T12:47:15;16.60;10.20
5286;DHT22;2665;53.112;7.358;2023-02-19T12:49:47;16.80;11.00
5286;DHT22;2665;53.112;7.358;2023-02-19T12:52:21;16.70;9.00
5286;DHT22;2665;53.112;7.358;2023-02-19T12:54:52;16.40;7.10
5286;DHT22;2665;53.112;7.358;2023-02-19T12:57:24;16.00;6.50
5286;DHT22;2665;53.112;7.358;2023-02-19T13:00:20;15.40;4.50
5286;DHT22;2665;53.112;7.358;2023-02-19T13:02:55;15.10;4.20
5286;DHT22;2665;53.112;7.358;2023-02-19T13:08:36;14.50;4.50
5286;DHT22;2665;53.112;7.358;2023-02-19T13:11:08;14.30;2.60
5286;DHT22;2665;53.112;7.358;2023-02-19T13:13:39;14.00;2.20
5286;DHT22;2665;53.112;7.358;2023-02-19T13:16:13;13.60;1.40
5286;DHT22;2665;53.112;7.358;2023-02-19T13:18:47;13.20;1.10
5286;DHT22;2665;53.112;7.358;2023-02-19T13:21:16;12.50;1.00
5286;DHT22;2665;53.112;7.358;2023-02-19T13:24:06;12.00;1.00
5286;DHT22;2665;53.112;7.358;2023-02-19T13:33:23;10.90;1.00
5286;DHT22;2665;53.112;7.358;2023-02-19T13:36:12;10.50;1.00
5286;DHT22;2665;53.112;7.358;2023-02-19T13:38:45;10.30;1.00
5286;DHT22;2665;53.112;7.358;2023-02-19T13:41:53;10.20;1.00
5286;DHT22;2665;53.112;7.358;2023-02-19T13:44:23;10.00;1.00
5286;DHT22;2665;53.112;7.358;2023-02-19T13:46:50;10.00;1.00
5286;DHT22;2665;53.112;7.358;2023-02-19T13:49:22;10.10;1.00
5286;DHT22;2665;53.112;7.358;2023-02-19T13:51:50;10.00;1.60
5286;DHT22;2665;53.112;7.358;2023-02-19T13:59:52;10.50;8.10
5286;DHT22;2665;53.112;7.358;2023-02-19T14:02:32;10.60;8.40
5286;DHT22;2665;53.112;7.358;2023-02-19T14:05:09;11.00;11.10
5286;DHT22;2665;53.112;7.358;2023-02-19T14:07:50;11.20;11.80
5286;DHT22;2665;53.112;7.358;2023-02-19T14:13:07;11.00;9.50
5286;DHT22;2665;53.112;7.358;2023-02-19T14:15:41;10.80;21.90
5286;DHT22;2665;53.112;7.358;2023-02-19T14:18:43;10.70;9.20
5286;DHT22;2665;53.112;7.358;2023-02-19T14:21:23;10.60;8.50
5286;DHT22;2665;53.112;7.358;2023-02-19T14:23:55;10.50;9.60
5286;DHT22;2665;53.112;7.358;2023-02-19T14:26:23;10.50;22.50
5286;DHT22;2665;53.112;7.358;2023-02-19T14:28:51;10.40;9.60
5286;DHT22;2665;53.112;7.358;2023-02-19T14:31:36;10.30;21.50
5286;DHT22;2665;53.112;7.358;2023-02-19T14:36:54;9.80;9.20
5286;DHT22;2665;53.112;7.358;2023-02-19T14:41:56;10.20;11.00
5286;DHT22;2665;53.112;7.358;2023-02-19T14:44:30;10.30;11.20
5286;DHT22;2665;53.112;7.358;2023-02-19T14:47:07;10.40;12.10
5286;DHT22;2665;53.112;7.358;2023-02-19T14:49:43;10.60;12.10
5286;DHT22;2665;53.112;7.358;2023-02-19T14:52:20;10.70;11.20
5286;DHT22;2665;53.112;7.358;2023-02-19T14:54:52;11.00;13.20
5286;DHT22;2665;53.112;7.358;2023-02-19T14:57:28;11.10;13.20
5286;DHT22;2665;53.112;7.358;2023-02-19T14:59:58;11.00;10.90
5286;DHT22;2665;53.112;7.358;2023-02-19T15:02:28;10.90;12.30
5286;DHT22;2665;53.112;7.358;2023-02-19T15:04:55;10.80;10.50
5286;DHT22;2665;53.112;7.358;2023-02-19T15:07:24;10.80;11.50
5286;DHT22;2665;53.112;7.358;2023-02-19T15:09:52;11.30;14.50
5286;DHT22;2665;53.112;7.358;2023-02-19T15:12:29;11.10;12.90
5286;DHT22;2665;53.112;7.358;2023-02-19T15:15:00;10.60;11.80
